sensor_id;sensor_type;location;lat;lon;timestamp;P1;durP1;ratioP1;P2;durP2;ratioP2
20908;SDS011;10614;53.198;6.570;2022-12-18T00:00:47;48.35;;;15.45;;
20908;SDS011;10614;53.198;6.570;2022-12-18T00:02:49;45.03;;;14.90;;
20908;SDS011;10614;53.198;6.570;2022-12-18T00:04:51;47.33;;;13.65;;
20908;SDS011;10614;53.198;6.570;2022-12-18T00:06:54;45.20;;;15.15;;
20908;SDS011;10614;53.198;6.570;2022-12-18T00:08:56;45.33;;;15.23;;
20908;SDS011;10614;53.198;6.570;2022-12-18T00:11:02;43.72;;;14.30;;
20908;SDS011;10614;53.198;6.570;2022-12-18T00:13:05;38.55;;;12.65;;
20908;SDS011;10614;53.198;6.570;2022-12-18T00:15:07;40.70;;;13.07;;
20908;SDS011;10614;53.198;6.570;2022-12-18T00:17:09;45.15;;;14.65;;
20908;SDS011;10614;53.198;6.570;2022-12-18T00:19:11;44.22;;;14.73;;
20908;SDS011;10614;53.198;6.570;2022-12-18T00:21:14;42.20;;;13.02;;
20908;SDS011;10614;53.198;6.570;2022-12-18T00:23:17;41.65;;;14.23;;
20908;SDS011;10614;53.198;6.570;2022-12-18T00:25:19;46.80;;;14.75;;
20908;SDS011;10614;53.198;6.570;2022-12-18T00:27:21;42.03;;;14.13;;
20908;SDS011;10614;53.198;6.570;2022-12-18T00:29:23;45.20;;;14.65;;
20908;SDS011;10614;53.198;6.570;2022-12-18T00:31:25;35.63;;;11.85;;
20908;SDS011;10614;53.198;6.570;2022-12-18T00:33:27;46.45;;;14.07;;
20908;SDS011;10614;53.198;6.570;2022-12-18T00:35:28;43.05;;;12.68;;
20908;SDS011;10614;53.198;6.570;2022-12-18T00:37:30;34.08;;;12.10;;
20908;SDS011;10614;53.198;6.570;2022-12-18T00:39:33;39.83;;;12.13;;
20908;SDS011;10614;53.198;6.570;2022-12-18T00:41:34;47.47;;;14.98;;
20908;SDS011;10614;53.198;6.570;2022-12-18T00:43:54;40.53;;;13.05;;
20908;SDS011;10614;53.198;6.570;2022-12-18T00:45:55;41.63;;;13.27;;
20908;SDS011;10614;53.198;6.570;2022-12-18T00:47:57;38.83;;;14.32;;
20908;SDS011;10614;53.198;6.570;2022-12-18T00:49:58;42.47;;;12.27;;
20908;SDS011;10614;53.198;6.570;2022-12-18T00:51:59;32.03;;;12.23;;
20908;SDS011;10614;53.198;6.570;2022-12-18T00:54:01;36.85;;;13.15;;
20908;SDS011;10614;53.198;6.570;2022-12-18T00:56:04;41.00;;;13.02;;
20908;SDS011;10614;53.198;6.570;2022-12-18T00:58:06;42.63;;;14.18;;
20908;SDS011;10614;53.198;6.570;2022-12-18T01:00:09;42.30;;;13.88;;
20908;SDS011;10614;53.198;6.570;2022-12-18T01:02:12;28.53;;;9.13;;
20908;SDS011;10614;53.198;6.570;2022-12-18T01:04:13;37.30;;;13.57;;
20908;SDS011;10614;53.198;6.570;2022-12-18T01:06:16;30.77;;;11.25;;
20908;SDS011;10614;53.198;6.570;2022-12-18T01:08:18;36.70;;;12.43;;
20908;SDS011;10614;53.198;6.570;2022-12-18T01:10:19;35.65;;;11.00;;
20908;SDS011;10614;53.198;6.570;2022-12-18T01:12:23;38.53;;;12.80;;
20908;SDS011;10614;53.198;6.570;2022-12-18T01:14:24;46.10;;;13.65;;
20908;SDS011;10614;53.198;6.570;2022-12-18T01:16:26;42.58;;;13.60;;
20908;SDS011;10614;53.198;6.570;2022-12-18T01:18:28;38.38;;;13.43;;
20908;SDS011;10614;53.198;6.570;2022-12-18T01:20:30;35.85;;;11.75;;
20908;SDS011;10614;53.198;6.570;2022-12-18T01:22:32;38.47;;;12.95;;
20908;SDS011;10614;53.198;6.570;2022-12-18T01:24:35;42.20;;;11.88;;
20908;SDS011;10614;53.198;6.570;2022-12-18T01:26:37;36.45;;;12.43;;
20908;SDS011;10614;53.198;6.570;2022-12-18T01:28:40;34.95;;;12.40;;
20908;SDS011;10614;53.198;6.570;2022-12-18T01:30:42;44.22;;;13.05;;
20908;SDS011;10614;53.198;6.570;2022-12-18T01:32:44;38.97;;;11.85;;
20908;SDS011;10614;53.198;6.570;2022-12-18T01:34:45;35.28;;;12.45;;
20908;SDS011;10614;53.198;6.570;2022-12-18T01:36:47;42.60;;;13.73;;
20908;SDS011;10614;53.198;6.570;2022-12-18T01:38:49;39.83;;;13.68;;
20908;SDS011;10614;53.198;6.570;2022-12-18T01:40:56;46.75;;;13.30;;
20908;SDS011;10614;53.198;6.570;2022-12-18T01:42:58;36.15;;;12.98;;
20908;SDS011;10614;53.198;6.570;2022-12-18T01:45:06;35.30;;;12.30;;
20908;SDS011;10614;53.198;6.570;2022-12-18T01:47:23;40.70;;;14.30;;
20908;SDS011;10614;53.198;6.570;2022-12-18T01:49:29;44.70;;;14.07;;
20908;SDS011;10614;53.198;6.570;2022-12-18T01:51:31;41.05;;;11.98;;
20908;SDS011;10614;53.198;6.570;2022-12-18T01:53:32;32.33;;;11.32;;
20908;SDS011;10614;53.198;6.570;2022-12-18T01:55:35;39.10;;;13.18;;
20908;SDS011;10614;53.198;6.570;2022-12-18T01:57:40;42.80;;;13.13;;
20908;SDS011;10614;53.198;6.570;2022-12-18T01:59:42;32.03;;;13.18;;
20908;SDS011;10614;53.198;6.570;2022-12-18T02:01:49;42.33;;;13.52;;
20908;SDS011;10614;53.198;6.570;2022-12-18T02:03:51;31.88;;;11.00;;
20908;SDS011;10614;53.198;6.570;2022-12-18T02:05:54;36.40;;;11.07;;
20908;SDS011;10614;53.198;6.570;2022-12-18T02:08:02;34.47;;;10.98;;
20908;SDS011;10614;53.198;6.570;2022-12-18T02:10:11;27.55;;;10.02;;
20908;SDS011;10614;53.198;6.570;2022-12-18T02:12:21;45.35;;;14.15;;
20908;SDS011;10614;53.198;6.570;2022-12-18T02:16:34;39.55;;;11.60;;
20908;SDS011;10614;53.198;6.570;2022-12-18T02:18:45;33.95;;;12.20;;
20908;SDS011;10614;53.198;6.570;2022-12-18T02:20:53;39.55;;;11.60;;
20908;SDS011;10614;53.198;6.570;2022-12-18T02:23:11;34.00;;;12.25;;
20908;SDS011;10614;53.198;6.570;2022-12-18T02:25:28;33.00;;;10.60;;
20908;SDS011;10614;53.198;6.570;2022-12-18T02:27:42;36.95;;;10.80;;
20908;SDS011;10614;53.198;6.570;2022-12-18T02:29:48;36.58;;;10.32;;
20908;SDS011;10614;53.198;6.570;2022-12-18T02:31:53;32.00;;;12.15;;
20908;SDS011;10614;53.198;6.570;2022-12-18T02:33:58;29.75;;;8.60;;
20908;SDS011;10614;53.198;6.570;2022-12-18T02:36:03;33.53;;;10.95;;
20908;SDS011;10614;53.198;6.570;2022-12-18T02:38:06;33.10;;;10.32;;
20908;SDS011;10614;53.198;6.570;2022-12-18T02:40:09;36.63;;;11.45;;
20908;SDS011;10614;53.198;6.570;2022-12-18T02:42:12;30.08;;;10.27;;
20908;SDS011;10614;53.198;6.570;2022-12-18T02:44:16;37.65;;;11.68;;
20908;SDS011;10614;53.198;6.570;2022-12-18T02:46:28;46.15;;;13.05;;
20908;SDS011;10614;53.198;6.570;2022-12-18T02:48:33;33.20;;;11.10;;
20908;SDS011;10614;53.198;6.570;2022-12-18T02:50:38;40.15;;;12.40;;
20908;SDS011;10614;53.198;6.570;2022-12-18T02:52:49;36.80;;;12.27;;
20908;SDS011;10614;53.198;6.570;2022-12-18T02:55:06;41.63;;;12.88;;
20908;SDS011;10614;53.198;6.570;2022-12-18T02:57:15;36.33;;;11.68;;
20908;SDS011;10614;53.198;6.570;2022-12-18T02:59:26;34.90;;;10.65;;
20908;SDS011;10614;53.198;6.570;2022-12-18T03:01:33;32.45;;;10.65;;
20908;SDS011;10614;53.198;6.570;2022-12-18T03:03:41;29.95;;;10.35;;
20908;SDS011;10614;53.198;6.570;2022-12-18T03:05:47;37.15;;;12.00;;
20908;SDS011;10614;53.198;6.570;2022-12-18T03:07:53;31.85;;;11.32;;
20908;SDS011;10614;53.198;6.570;2022-12-18T03:09:58;33.92;;;10.95;;
20908;SDS011;10614;53.198;6.570;2022-12-18T03:12:02;35.70;;;12.15;;
20908;SDS011;10614;53.198;6.570;2022-12-18T03:14:24;41.15;;;13.18;;
20908;SDS011;10614;53.198;6.570;2022-12-18T03:16:30;50.28;;;14.43;;
20908;SDS011;10614;53.198;6.570;2022-12-18T03:18:33;37.75;;;12.02;;
20908;SDS011;10614;53.198;6.570;2022-12-18T03:20:39;44.92;;;13.82;;
20908;SDS011;10614;53.198;6.570;2022-12-18T03:22:44;43.25;;;13.40;;
20908;SDS011;10614;53.198;6.570;2022-12-18T03:24:51;45.10;;;14.50;;
20908;SDS011;10614;53.198;6.570;2022-12-18T03:26:57;39.70;;;11.48;;
20908;SDS011;10614;53.198;6.570;2022-12-18T03:29:02;38.45;;;12.88;;
20908;SDS011;10614;53.198;6.570;2022-12-18T03:31:10;36.47;;;12.15;;
20908;SDS011;10614;53.198;6.570;2022-12-18T03:33:16;34.25;;;11.90;;
20908;SDS011;10614;53.198;6.570;2022-12-18T03:35:21;41.33;;;12.20;;
20908;SDS011;10614;53.198;6.570;2022-12-18T03:37:26;42.42;;;12.60;;
20908;SDS011;10614;53.198;6.570;2022-12-18T03:39:28;28.98;;;11.10;;
20908;SDS011;10614;53.198;6.570;2022-12-18T03:41:31;30.70;;;10.98;;
20908;SDS011;10614;53.198;6.570;2022-12-18T03:43:35;36.42;;;13.10;;
20908;SDS011;10614;53.198;6.570;2022-12-18T03:45:46;35.08;;;12.15;;
20908;SDS011;10614;53.198;6.570;2022-12-18T03:48:00;38.97;;;12.07;;
20908;SDS011;10614;53.198;6.570;2022-12-18T03:50:07;34.03;;;10.40;;
20908;SDS011;10614;53.198;6.570;2022-12-18T03:52:17;37.90;;;10.93;;
20908;SDS011;10614;53.198;6.570;2022-12-18T03:54:22;36.97;;;12.85;;
20908;SDS011;10614;53.198;6.570;2022-12-18T03:56:25;43.90;;;12.88;;
20908;SDS011;10614;53.198;6.570;2022-12-18T03:58:29;36.58;;;11.15;;
20908;SDS011;10614;53.198;6.570;2022-12-18T04:00:35;32.05;;;10.80;;
20908;SDS011;10614;53.198;6.570;2022-12-18T04:02:37;40.40;;;12.45;;
20908;SDS011;10614;53.198;6.570;2022-12-18T04:04:44;30.13;;;10.10;;
20908;SDS011;10614;53.198;6.570;2022-12-18T04:06:47;30.88;;;10.30;;
20908;SDS011;10614;53.198;6.570;2022-12-18T04:08:50;40.20;;;11.20;;
20908;SDS011;10614;53.198;6.570;2022-12-18T04:10:53;32.78;;;11.20;;
20908;SDS011;10614;53.198;6.570;2022-12-18T04:12:55;35.65;;;11.20;;
20908;SDS011;10614;53.198;6.570;2022-12-18T04:14:58;38.65;;;12.10;;
20908;SDS011;10614;53.198;6.570;2022-12-18T04:17:00;29.15;;;9.35;;
20908;SDS011;10614;53.198;6.570;2022-12-18T04:19:01;30.88;;;10.68;;
20908;SDS011;10614;53.198;6.570;2022-12-18T04:21:05;30.65;;;10.63;;
20908;SDS011;10614;53.198;6.570;2022-12-18T04:23:06;30.77;;;9.90;;
20908;SDS011;10614;53.198;6.570;2022-12-18T04:25:08;35.85;;;10.65;;
20908;SDS011;10614;53.198;6.570;2022-12-18T04:27:10;40.03;;;12.50;;
20908;SDS011;10614;53.198;6.570;2022-12-18T04:29:12;35.22;;;12.10;;
20908;SDS011;10614;53.198;6.570;2022-12-18T04:31:14;30.58;;;9.95;;
20908;SDS011;10614;53.198;6.570;2022-12-18T04:33:16;27.52;;;9.85;;
20908;SDS011;10614;53.198;6.570;2022-12-18T04:35:17;31.00;;;10.25;;
20908;SDS011;10614;53.198;6.570;2022-12-18T04:37:21;35.95;;;11.00;;
20908;SDS011;10614;53.198;6.570;2022-12-18T04:39:23;38.60;;;12.43;;
20908;SDS011;10614;53.198;6.570;2022-12-18T04:41:24;47.40;;;12.20;;
20908;SDS011;10614;53.198;6.570;2022-12-18T04:43:26;33.55;;;11.23;;
20908;SDS011;10614;53.198;6.570;2022-12-18T04:45:28;29.98;;;10.57;;
20908;SDS011;10614;53.198;6.570;2022-12-18T04:47:31;28.70;;;9.82;;
20908;SDS011;10614;53.198;6.570;2022-12-18T04:49:32;39.35;;;12.27;;
20908;SDS011;10614;53.198;6.570;2022-12-18T04:51:34;31.58;;;10.20;;
20908;SDS011;10614;53.198;6.570;2022-12-18T04:53:37;38.47;;;12.82;;
20908;SDS011;10614;53.198;6.570;2022-12-18T04:55:39;35.80;;;11.45;;
20908;SDS011;10614;53.198;6.570;2022-12-18T04:57:40;34.38;;;11.82;;
20908;SDS011;10614;53.198;6.570;2022-12-18T04:59:42;33.40;;;12.07;;
20908;SDS011;10614;53.198;6.570;2022-12-18T05:01:44;29.48;;;9.70;;
20908;SDS011;10614;53.198;6.570;2022-12-18T05:03:45;35.75;;;11.63;;
20908;SDS011;10614;53.198;6.570;2022-12-18T05:05:48;23.95;;;9.23;;
20908;SDS011;10614;53.198;6.570;2022-12-18T05:07:50;26.98;;;10.32;;
20908;SDS011;10614;53.198;6.570;2022-12-18T05:09:54;31.92;;;9.77;;
20908;SDS011;10614;53.198;6.570;2022-12-18T05:11:55;34.13;;;10.52;;
20908;SDS011;10614;53.198;6.570;2022-12-18T05:13:57;32.72;;;9.98;;
20908;SDS011;10614;53.198;6.570;2022-12-18T05:15:59;34.33;;;10.80;;
20908;SDS011;10614;53.198;6.570;2022-12-18T05:18:01;27.70;;;9.23;;
20908;SDS011;10614;53.198;6.570;2022-12-18T05:20:04;25.67;;;8.27;;
20908;SDS011;10614;53.198;6.570;2022-12-18T05:22:06;42.13;;;12.98;;
20908;SDS011;10614;53.198;6.570;2022-12-18T05:24:09;31.45;;;10.18;;
20908;SDS011;10614;53.198;6.570;2022-12-18T05:26:14;27.58;;;8.98;;
20908;SDS011;10614;53.198;6.570;2022-12-18T05:28:17;23.58;;;9.88;;
20908;SDS011;10614;53.198;6.570;2022-12-18T05:30:19;34.28;;;10.80;;
20908;SDS011;10614;53.198;6.570;2022-12-18T05:32:20;30.35;;;11.38;;
20908;SDS011;10614;53.198;6.570;2022-12-18T05:34:22;25.92;;;9.32;;
20908;SDS011;10614;53.198;6.570;2022-12-18T05:36:24;31.55;;;9.68;;
20908;SDS011;10614;53.198;6.570;2022-12-18T05:38:26;33.42;;;10.55;;
20908;SDS011;10614;53.198;6.570;2022-12-18T05:40:28;31.80;;;9.98;;
20908;SDS011;10614;53.198;6.570;2022-12-18T05:42:31;30.60;;;9.75;;
20908;SDS011;10614;53.198;6.570;2022-12-18T05:44:33;25.50;;;9.23;;
20908;SDS011;10614;53.198;6.570;2022-12-18T05:46:35;38.78;;;9.88;;
20908;SDS011;10614;53.198;6.570;2022-12-18T05:48:37;27.98;;;10.02;;
20908;SDS011;10614;53.198;6.570;2022-12-18T05:50:39;29.48;;;10.20;;
20908;SDS011;10614;53.198;6.570;2022-12-18T05:52:42;35.78;;;11.07;;
20908;SDS011;10614;53.198;6.570;2022-12-18T05:54:44;29.20;;;10.27;;
20908;SDS011;10614;53.198;6.570;2022-12-18T05:56:45;28.77;;;10.27;;
20908;SDS011;10614;53.198;6.570;2022-12-18T05:58:50;31.52;;;10.70;;
20908;SDS011;10614;53.198;6.570;2022-12-18T06:00:53;27.83;;;8.73;;
20908;SDS011;10614;53.198;6.570;2022-12-18T06:02:54;32.78;;;10.70;;
20908;SDS011;10614;53.198;6.570;2022-12-18T06:04:56;22.65;;;10.10;;
20908;SDS011;10614;53.198;6.570;2022-12-18T06:06:57;28.65;;;9.32;;
20908;SDS011;10614;53.198;6.570;2022-12-18T06:08:59;23.73;;;10.35;;
20908;SDS011;10614;53.198;6.570;2022-12-18T06:11:01;28.65;;;9.88;;
20908;SDS011;10614;53.198;6.570;2022-12-18T06:13:03;31.60;;;10.10;;
20908;SDS011;10614;53.198;6.570;2022-12-18T06:15:07;24.30;;;8.98;;
20908;SDS011;10614;53.198;6.570;2022-12-18T06:17:09;19.67;;;7.97;;
20908;SDS011;10614;53.198;6.570;2022-12-18T06:19:14;26.08;;;8.18;;
20908;SDS011;10614;53.198;6.570;2022-12-18T06:21:16;24.98;;;8.45;;
20908;SDS011;10614;53.198;6.570;2022-12-18T06:23:18;29.08;;;9.75;;
20908;SDS011;10614;53.198;6.570;2022-12-18T06:25:19;24.60;;;8.63;;
20908;SDS011;10614;53.198;6.570;2022-12-18T06:27:21;24.23;;;8.57;;
20908;SDS011;10614;53.198;6.570;2022-12-18T06:29:23;24.27;;;8.50;;
20908;SDS011;10614;53.198;6.570;2022-12-18T06:31:26;24.95;;;9.00;;
20908;SDS011;10614;53.198;6.570;2022-12-18T06:33:27;29.70;;;9.38;;
20908;SDS011;10614;53.198;6.570;2022-12-18T06:35:29;19.83;;;7.82;;
20908;SDS011;10614;53.198;6.570;2022-12-18T06:37:33;25.25;;;9.00;;
20908;SDS011;10614;53.198;6.570;2022-12-18T06:39:34;30.08;;;9.00;;
20908;SDS011;10614;53.198;6.570;2022-12-18T06:41:36;20.88;;;7.85;;
20908;SDS011;10614;53.198;6.570;2022-12-18T06:43:38;23.35;;;8.90;;
20908;SDS011;10614;53.198;6.570;2022-12-18T06:45:39;21.95;;;8.23;;
20908;SDS011;10614;53.198;6.570;2022-12-18T06:47:43;37.25;;;10.77;;
20908;SDS011;10614;53.198;6.570;2022-12-18T06:49:45;27.15;;;9.13;;
20908;SDS011;10614;53.198;6.570;2022-12-18T06:51:47;35.47;;;10.48;;
20908;SDS011;10614;53.198;6.570;2022-12-18T06:53:48;24.38;;;9.00;;
20908;SDS011;10614;53.198;6.570;2022-12-18T06:55:51;22.77;;;8.00;;
20908;SDS011;10614;53.198;6.570;2022-12-18T06:57:52;20.00;;;7.10;;
20908;SDS011;10614;53.198;6.570;2022-12-18T06:59:54;20.45;;;8.02;;
20908;SDS011;10614;53.198;6.570;2022-12-18T07:01:55;21.85;;;8.10;;
20908;SDS011;10614;53.198;6.570;2022-12-18T07:03:58;25.10;;;8.60;;
20908;SDS011;10614;53.198;6.570;2022-12-18T07:06:00;22.70;;;7.15;;
20908;SDS011;10614;53.198;6.570;2022-12-18T07:08:02;27.63;;;8.30;;
20908;SDS011;10614;53.198;6.570;2022-12-18T07:10:04;23.73;;;8.07;;
20908;SDS011;10614;53.198;6.570;2022-12-18T07:12:06;21.90;;;7.47;;
20908;SDS011;10614;53.198;6.570;2022-12-18T07:14:08;23.33;;;8.50;;
20908;SDS011;10614;53.198;6.570;2022-12-18T07:16:10;22.80;;;7.82;;
20908;SDS011;10614;53.198;6.570;2022-12-18T07:18:14;22.50;;;8.15;;
20908;SDS011;10614;53.198;6.570;2022-12-18T07:20:17;20.33;;;8.75;;
20908;SDS011;10614;53.198;6.570;2022-12-18T07:22:19;20.50;;;8.73;;
20908;SDS011;10614;53.198;6.570;2022-12-18T07:24:21;17.42;;;7.10;;
20908;SDS011;10614;53.198;6.570;2022-12-18T07:26:22;22.98;;;7.97;;
20908;SDS011;10614;53.198;6.570;2022-12-18T07:28:24;17.30;;;6.65;;
20908;SDS011;10614;53.198;6.570;2022-12-18T07:30:27;20.65;;;7.90;;
20908;SDS011;10614;53.198;6.570;2022-12-18T07:32:30;20.85;;;6.95;;
20908;SDS011;10614;53.198;6.570;2022-12-18T07:34:31;18.98;;;7.47;;
20908;SDS011;10614;53.198;6.570;2022-12-18T07:36:34;20.73;;;7.07;;
20908;SDS011;10614;53.198;6.570;2022-12-18T07:38:36;21.90;;;7.82;;
20908;SDS011;10614;53.198;6.570;2022-12-18T07:40:38;28.50;;;8.27;;
20908;SDS011;10614;53.198;6.570;2022-12-18T07:42:40;16.50;;;6.72;;
20908;SDS011;10614;53.198;6.570;2022-12-18T07:44:42;17.52;;;7.55;;
20908;SDS011;10614;53.198;6.570;2022-12-18T07:46:43;24.80;;;7.85;;
20908;SDS011;10614;53.198;6.570;2022-12-18T07:48:45;21.13;;;7.75;;
20908;SDS011;10614;53.198;6.570;2022-12-18T07:50:47;18.58;;;7.68;;
20908;SDS011;10614;53.198;6.570;2022-12-18T07:52:50;23.88;;;8.98;;
20908;SDS011;10614;53.198;6.570;2022-12-18T07:54:52;25.20;;;9.00;;
20908;SDS011;10614;53.198;6.570;2022-12-18T07:56:53;17.30;;;7.22;;
20908;SDS011;10614;53.198;6.570;2022-12-18T07:58:55;19.25;;;7.68;;
20908;SDS011;10614;53.198;6.570;2022-12-18T08:01:01;19.33;;;7.40;;
20908;SDS011;10614;53.198;6.570;2022-12-18T08:03:04;15.30;;;6.18;;
20908;SDS011;10614;53.198;6.570;2022-12-18T08:05:06;20.40;;;7.28;;
20908;SDS011;10614;53.198;6.570;2022-12-18T08:07:09;19.73;;;6.75;;
20908;SDS011;10614;53.198;6.570;2022-12-18T08:09:12;23.15;;;8.27;;
20908;SDS011;10614;53.198;6.570;2022-12-18T08:11:14;17.92;;;6.93;;
20908;SDS011;10614;53.198;6.570;2022-12-18T08:13:16;19.00;;;7.35;;
20908;SDS011;10614;53.198;6.570;2022-12-18T08:15:18;22.77;;;7.82;;
20908;SDS011;10614;53.198;6.570;2022-12-18T08:17:22;16.40;;;6.75;;
20908;SDS011;10614;53.198;6.570;2022-12-18T08:19:23;20.85;;;7.50;;
20908;SDS011;10614;53.198;6.570;2022-12-18T08:21:26;20.45;;;8.20;;
20908;SDS011;10614;53.198;6.570;2022-12-18T08:23:29;17.77;;;6.60;;
20908;SDS011;10614;53.198;6.570;2022-12-18T08:25:32;19.98;;;6.97;;
20908;SDS011;10614;53.198;6.570;2022-12-18T08:27:35;14.77;;;6.47;;
20908;SDS011;10614;53.198;6.570;2022-12-18T08:29:37;17.15;;;6.18;;
20908;SDS011;10614;53.198;6.570;2022-12-18T08:31:38;21.70;;;6.88;;
20908;SDS011;10614;53.198;6.570;2022-12-18T08:33:45;17.25;;;7.30;;
20908;SDS011;10614;53.198;6.570;2022-12-18T08:35:49;19.38;;;6.47;;
20908;SDS011;10614;53.198;6.570;2022-12-18T08:37:51;19.67;;;7.25;;
20908;SDS011;10614;53.198;6.570;2022-12-18T08:39:53;23.85;;;7.55;;
20908;SDS011;10614;53.198;6.570;2022-12-18T08:41:57;16.42;;;6.03;;
20908;SDS011;10614;53.198;6.570;2022-12-18T08:44:16;17.13;;;6.50;;
20908;SDS011;10614;53.198;6.570;2022-12-18T08:46:36;14.43;;;6.68;;
20908;SDS011;10614;53.198;6.570;2022-12-18T08:48:39;14.82;;;6.78;;
20908;SDS011;10614;53.198;6.570;2022-12-18T08:50:40;18.70;;;7.20;;
20908;SDS011;10614;53.198;6.570;2022-12-18T08:52:42;15.63;;;6.68;;
20908;SDS011;10614;53.198;6.570;2022-12-18T08:54:44;21.95;;;7.25;;
20908;SDS011;10614;53.198;6.570;2022-12-18T08:56:45;17.15;;;7.88;;
20908;SDS011;10614;53.198;6.570;2022-12-18T08:58:50;23.35;;;8.25;;
20908;SDS011;10614;53.198;6.570;2022-12-18T09:00:53;19.88;;;7.53;;
20908;SDS011;10614;53.198;6.570;2022-12-18T09:02:55;18.67;;;7.28;;
20908;SDS011;10614;53.198;6.570;2022-12-18T09:04:57;18.38;;;7.18;;
20908;SDS011;10614;53.198;6.570;2022-12-18T09:06:58;21.25;;;8.15;;
20908;SDS011;10614;53.198;6.570;2022-12-18T09:09:00;18.88;;;7.60;;
20908;SDS011;10614;53.198;6.570;2022-12-18T09:11:02;18.77;;;7.40;;
20908;SDS011;10614;53.198;6.570;2022-12-18T09:13:04;17.73;;;7.38;;
20908;SDS011;10614;53.198;6.570;2022-12-18T09:15:08;18.65;;;7.07;;
20908;SDS011;10614;53.198;6.570;2022-12-18T09:17:10;15.48;;;5.65;;
20908;SDS011;10614;53.198;6.570;2022-12-18T09:19:12;19.13;;;7.95;;
20908;SDS011;10614;53.198;6.570;2022-12-18T09:21:15;15.30;;;6.35;;
20908;SDS011;10614;53.198;6.570;2022-12-18T09:25:20;13.52;;;5.93;;
20908;SDS011;10614;53.198;6.570;2022-12-18T09:27:22;21.40;;;8.00;;
20908;SDS011;10614;53.198;6.570;2022-12-18T09:29:24;20.92;;;8.95;;
20908;SDS011;10614;53.198;6.570;2022-12-18T09:31:28;20.33;;;6.88;;
20908;SDS011;10614;53.198;6.570;2022-12-18T09:33:30;17.47;;;6.87;;
20908;SDS011;10614;53.198;6.570;2022-12-18T09:35:32;18.05;;;7.00;;
20908;SDS011;10614;53.198;6.570;2022-12-18T09:37:34;20.58;;;8.80;;
20908;SDS011;10614;53.198;6.570;2022-12-18T09:39:35;21.25;;;7.53;;
20908;SDS011;10614;53.198;6.570;2022-12-18T09:41:44;17.33;;;7.00;;
20908;SDS011;10614;53.198;6.570;2022-12-18T09:43:48;21.05;;;7.55;;
20908;SDS011;10614;53.198;6.570;2022-12-18T09:45:53;18.60;;;7.55;;
20908;SDS011;10614;53.198;6.570;2022-12-18T09:48:04;17.90;;;6.57;;
20908;SDS011;10614;53.198;6.570;2022-12-18T09:50:15;14.25;;;6.22;;
20908;SDS011;10614;53.198;6.570;2022-12-18T09:52:26;20.23;;;7.72;;
20908;SDS011;10614;53.198;6.570;2022-12-18T09:54:33;14.30;;;7.20;;
20908;SDS011;10614;53.198;6.570;2022-12-18T09:56:40;19.35;;;7.25;;
20908;SDS011;10614;53.198;6.570;2022-12-18T09:58:45;17.95;;;6.82;;
20908;SDS011;10614;53.198;6.570;2022-12-18T10:00:51;13.90;;;6.43;;
20908;SDS011;10614;53.198;6.570;2022-12-18T10:02:53;16.00;;;7.03;;
20908;SDS011;10614;53.198;6.570;2022-12-18T10:05:05;15.70;;;6.72;;
20908;SDS011;10614;53.198;6.570;2022-12-18T10:07:13;16.65;;;6.85;;
20908;SDS011;10614;53.198;6.570;2022-12-18T10:09:23;14.63;;;5.72;;
20908;SDS011;10614;53.198;6.570;2022-12-18T10:11:34;13.75;;;6.32;;
20908;SDS011;10614;53.198;6.570;2022-12-18T10:13:45;16.65;;;6.07;;
20908;SDS011;10614;53.198;6.570;2022-12-18T10:16:00;16.55;;;6.10;;
20908;SDS011;10614;53.198;6.570;2022-12-18T10:18:16;14.60;;;5.53;;
20908;SDS011;10614;53.198;6.570;2022-12-18T10:20:28;11.10;;;5.18;;
20908;SDS011;10614;53.198;6.570;2022-12-18T10:22:39;18.98;;;7.13;;
20908;SDS011;10614;53.198;6.570;2022-12-18T10:24:53;18.48;;;6.15;;
20908;SDS011;10614;53.198;6.570;2022-12-18T10:27:06;14.98;;;6.25;;
20908;SDS011;10614;53.198;6.570;2022-12-18T10:29:15;14.45;;;6.15;;
20908;SDS011;10614;53.198;6.570;2022-12-18T10:31:17;13.88;;;5.45;;
20908;SDS011;10614;53.198;6.570;2022-12-18T10:33:21;12.73;;;5.30;;
20908;SDS011;10614;53.198;6.570;2022-12-18T10:35:25;11.23;;;5.20;;
20908;SDS011;10614;53.198;6.570;2022-12-18T10:37:29;13.40;;;5.50;;
20908;SDS011;10614;53.198;6.570;2022-12-18T10:39:31;18.00;;;5.60;;
20908;SDS011;10614;53.198;6.570;2022-12-18T10:41:33;13.23;;;5.55;;
20908;SDS011;10614;53.198;6.570;2022-12-18T10:43:35;11.98;;;5.20;;
20908;SDS011;10614;53.198;6.570;2022-12-18T10:45:37;12.85;;;5.55;;
20908;SDS011;10614;53.198;6.570;2022-12-18T10:47:41;12.00;;;4.57;;
20908;SDS011;10614;53.198;6.570;2022-12-18T10:51:50;14.07;;;4.95;;
20908;SDS011;10614;53.198;6.570;2022-12-18T10:53:54;11.82;;;4.70;;
20908;SDS011;10614;53.198;6.570;2022-12-18T10:55:58;12.60;;;4.28;;
20908;SDS011;10614;53.198;6.570;2022-12-18T10:58:13;15.93;;;5.50;;
20908;SDS011;10614;53.198;6.570;2022-12-18T11:02:26;9.75;;;4.22;;
20908;SDS011;10614;53.198;6.570;2022-12-18T11:04:32;12.15;;;4.60;;
20908;SDS011;10614;53.198;6.570;2022-12-18T11:06:35;11.10;;;4.10;;
20908;SDS011;10614;53.198;6.570;2022-12-18T11:08:57;14.63;;;5.13;;
20908;SDS011;10614;53.198;6.570;2022-12-18T11:11:00;9.70;;;3.20;;
20908;SDS011;10614;53.198;6.570;2022-12-18T11:13:10;11.52;;;4.72;;
20908;SDS011;10614;53.198;6.570;2022-12-18T11:15:16;10.07;;;4.43;;
20908;SDS011;10614;53.198;6.570;2022-12-18T11:17:22;10.57;;;4.75;;
20908;SDS011;10614;53.198;6.570;2022-12-18T11:19:31;11.07;;;4.35;;
20908;SDS011;10614;53.198;6.570;2022-12-18T11:21:38;11.85;;;4.32;;
20908;SDS011;10614;53.198;6.570;2022-12-18T11:23:46;10.73;;;4.40;;
20908;SDS011;10614;53.198;6.570;2022-12-18T11:25:51;13.85;;;4.63;;
20908;SDS011;10614;53.198;6.570;2022-12-18T11:28:01;10.05;;;4.05;;
20908;SDS011;10614;53.198;6.570;2022-12-18T11:30:09;9.15;;;4.05;;
20908;SDS011;10614;53.198;6.570;2022-12-18T11:32:26;9.85;;;4.40;;
20908;SDS011;10614;53.198;6.570;2022-12-18T11:34:32;10.30;;;4.05;;
20908;SDS011;10614;53.198;6.570;2022-12-18T11:36:36;9.95;;;4.03;;
20908;SDS011;10614;53.198;6.570;2022-12-18T11:38:40;10.98;;;4.30;;
20908;SDS011;10614;53.198;6.570;2022-12-18T11:40:49;7.43;;;3.53;;
20908;SDS011;10614;53.198;6.570;2022-12-18T11:42:57;11.52;;;3.92;;
20908;SDS011;10614;53.198;6.570;2022-12-18T11:45:21;8.75;;;3.78;;
20908;SDS011;10614;53.198;6.570;2022-12-18T11:47:28;8.27;;;3.70;;
20908;SDS011;10614;53.198;6.570;2022-12-18T11:49:36;11.02;;;4.18;;
20908;SDS011;10614;53.198;6.570;2022-12-18T11:51:43;8.57;;;3.10;;
20908;SDS011;10614;53.198;6.570;2022-12-18T11:53:52;9.68;;;3.90;;
20908;SDS011;10614;53.198;6.570;2022-12-18T11:55:58;8.90;;;4.00;;
20908;SDS011;10614;53.198;6.570;2022-12-18T11:58:08;7.80;;;3.90;;
20908;SDS011;10614;53.198;6.570;2022-12-18T12:00:18;9.32;;;3.92;;
20908;SDS011;10614;53.198;6.570;2022-12-18T12:02:25;6.07;;;3.20;;
20908;SDS011;10614;53.198;6.570;2022-12-18T12:04:56;13.18;;;4.40;;
20908;SDS011;10614;53.198;6.570;2022-12-18T12:07:14;8.20;;;3.38;;
20908;SDS011;10614;53.198;6.570;2022-12-18T12:09:24;7.60;;;3.40;;
20908;SDS011;10614;53.198;6.570;2022-12-18T12:11:40;8.38;;;3.58;;
20908;SDS011;10614;53.198;6.570;2022-12-18T12:14:02;9.40;;;3.88;;
20908;SDS011;10614;53.198;6.570;2022-12-18T12:16:25;8.30;;;3.70;;
20908;SDS011;10614;53.198;6.570;2022-12-18T12:18:33;7.40;;;3.40;;
20908;SDS011;10614;53.198;6.570;2022-12-18T12:20:49;8.20;;;2.92;;
20908;SDS011;10614;53.198;6.570;2022-12-18T12:22:58;8.65;;;3.22;;